sensor_id;sensor_type;location;lat;lon;timestamp;temperature;humidity
2012;DHT22;1009;51.436;6.972;2023-04-24T00:01:02;11.40;99.90
2012;DHT22;1009;51.436;6.972;2023-04-24T00:03:28;11.40;99.90
2012;DHT22;1009;51.436;6.972;2023-04-24T00:05:55;11.40;99.90
2012;DHT22;1009;51.436;6.972;2023-04-24T00:08:23;11.40;99.90
2012;DHT22;1009;51.436;6.972;2023-04-24T00:10:50;11.40;99.90
2012;DHT22;1009;51.436;6.972;2023-04-24T00:13:18;11.40;99.90
2012;DHT22;1009;51.436;6.972;2023-04-24T00:15:44;11.30;99.90
2012;DHT22;1009;51.436;6.972;2023-04-24T00:18:11;11.20;99.90
2012;DHT22;1009;51.436;6.972;2023-04-24T00:20:38;11.20;99.90
2012;DHT22;1009;51.436;6.972;2023-04-24T00:23:05;11.20;99.90
2012;DHT22;1009;51.436;6.972;2023-04-24T00:25:33;11.20;99.90
2012;DHT22;1009;51.436;6.972;2023-04-24T00:27:59;11.10;99.90
2012;DHT22;1009;51.436;6.972;2023-04-24T00:30:26;11.10;99.90
2012;DHT22;1009;51.436;6.972;2023-04-24T00:32:53;11.10;99.90
2012;DHT22;1009;51.436;6.972;2023-04-24T00:35:19;11.00;99.90
2012;DHT22;1009;51.436;6.972;2023-04-24T00:37:46;11.00;99.90
2012;DHT22;1009;51.436;6.972;2023-04-24T00:40:13;10.90;99.90
2012;DHT22;1009;51.436;6.972;2023-04-24T00:42:47;11.00;99.90
2012;DHT22;1009;51.436;6.972;2023-04-24T00:45:15;10.90;99.90
2012;DHT22;1009;51.436;6.972;2023-04-24T00:47:42;10.90;99.90
2012;DHT22;1009;51.436;6.972;2023-04-24T00:50:09;10.90;99.90
2012;DHT22;1009;51.436;6.972;2023-04-24T00:52:36;10.80;99.90
2012;DHT22;1009;51.436;6.972;2023-04-24T00:55:06;10.80;99.90
2012;DHT22;1009;51.436;6.972;2023-04-24T00:57:33;10.70;99.90
2012;DHT22;1009;51.436;6.972;2023-04-24T01:00:03;10.60;99.90
2012;DHT22;1009;51.436;6.972;2023-04-24T01:02:38;10.50;99.90
2012;DHT22;1009;51.436;6.972;2023-04-24T01:05:09;10.50;99.90
2012;DHT22;1009;51.436;6.972;2023-04-24T01:07:37;10.50;99.90
2012;DHT22;1009;51.436;6.972;2023-04-24T01:10:05;10.50;99.90
2012;DHT22;1009;51.436;6.972;2023-04-24T01:12:33;10.50;99.90
2012;DHT22;1009;51.436;6.972;2023-04-24T01:15:01;10.50;99.90
2012;DHT22;1009;51.436;6.972;2023-04-24T01:17:29;10.50;99.90
2012;DHT22;1009;51.436;6.972;2023-04-24T01:19:56;10.40;99.90
2012;DHT22;1009;51.436;6.972;2023-04-24T01:22:25;10.50;99.90
2012;DHT22;1009;51.436;6.972;2023-04-24T01:24:52;10.40;99.90
2012;DHT22;1009;51.436;6.972;2023-04-24T01:27:19;10.30;99.90
2012;DHT22;1009;51.436;6.972;2023-04-24T01:29:47;10.20;99.90
2012;DHT22;1009;51.436;6.972;2023-04-24T01:32:14;10.30;99.90
2012;DHT22;1009;51.436;6.972;2023-04-24T01:34:42;10.20;99.90
2012;DHT22;1009;51.436;6.972;2023-04-24T01:37:09;10.20;99.90
2012;DHT22;1009;51.436;6.972;2023-04-24T01:39:37;10.10;99.90
2012;DHT22;1009;51.436;6.972;2023-04-24T01:42:05;10.10;99.90
2012;DHT22;1009;51.436;6.972;2023-04-24T01:44:32;10.00;99.90
2012;DHT22;1009;51.436;6.972;2023-04-24T01:47:02;10.00;99.90
2012;DHT22;1009;51.436;6.972;2023-04-24T01:49:29;10.00;99.90
2012;DHT22;1009;51.436;6.972;2023-04-24T01:51:56;10.00;99.90
2012;DHT22;1009;51.436;6.972;2023-04-24T01:54:23;9.90;99.90
2012;DHT22;1009;51.436;6.972;2023-04-24T01:56:51;9.80;99.90
2012;DHT22;1009;51.436;6.972;2023-04-24T01:59:17;9.90;99.90
2012;DHT22;1009;51.436;6.972;2023-04-24T02:01:45;9.80;99.90
2012;DHT22;1009;51.436;6.972;2023-04-24T02:04:12;9.80;99.90
2012;DHT22;1009;51.436;6.972;2023-04-24T02:06:41;9.70;99.90
2012;DHT22;1009;51.436;6.972;2023-04-24T02:09:08;9.70;99.90
2012;DHT22;1009;51.436;6.972;2023-04-24T02:11:36;9.60;99.90
2012;DHT22;1009;51.436;6.972;2023-04-24T02:14:04;9.60;99.90
2012;DHT22;1009;51.436;6.972;2023-04-24T02:16:31;9.60;99.90
2012;DHT22;1009;51.436;6.972;2023-04-24T02:18:59;9.60;99.90
2012;DHT22;1009;51.436;6.972;2023-04-24T02:21:25;9.60;99.90
2012;DHT22;1009;51.436;6.972;2023-04-24T02:23:53;9.60;99.90
2012;DHT22;1009;51.436;6.972;2023-04-24T02:26:19;9.60;99.90
2012;DHT22;1009;51.436;6.972;2023-04-24T02:28:46;9.60;99.90
2012;DHT22;1009;51.436;6.972;2023-04-24T02:31:14;9.50;99.90
2012;DHT22;1009;51.436;6.972;2023-04-24T02:33:41;9.50;99.90
2012;DHT22;1009;51.436;6.972;2023-04-24T02:36:08;9.50;99.90
2012;DHT22;1009;51.436;6.972;2023-04-24T02:38:34;9.50;99.90
2012;DHT22;1009;51.436;6.972;2023-04-24T02:41:01;9.60;99.90
2012;DHT22;1009;51.436;6.972;2023-04-24T02:43:31;9.50;99.90
2012;DHT22;1009;51.436;6.972;2023-04-24T02:45:58;9.50;99.90
2012;DHT22;1009;51.436;6.972;2023-04-24T02:48:26;9.50;99.90
2012;DHT22;1009;51.436;6.972;2023-04-24T02:50:53;9.50;99.90
2012;DHT22;1009;51.436;6.972;2023-04-24T02:53:19;9.50;99.90
2012;DHT22;1009;51.436;6.972;2023-04-24T02:55:46;9.50;99.90
2012;DHT22;1009;51.436;6.972;2023-04-24T02:58:16;9.60;99.90
2012;DHT22;1009;51.436;6.972;2023-04-24T03:00:45;9.60;99.90
2012;DHT22;1009;51.436;6.972;2023-04-24T03:03:11;9.60;99.90
2012;DHT22;1009;51.436;6.972;2023-04-24T03:05:39;9.60;99.90
2012;DHT22;1009;51.436;6.972;2023-04-24T03:08:06;9.50;99.90
2012;DHT22;1009;51.436;6.972;2023-04-24T03:10:33;9.60;99.90
2012;DHT22;1009;51.436;6.972;2023-04-24T03:13:03;9.60;99.90
2012;DHT22;1009;51.436;6.972;2023-04-24T03:15:35;9.60;99.90
2012;DHT22;1009;51.436;6.972;2023-04-24T03:18:02;9.60;99.90
2012;DHT22;1009;51.436;6.972;2023-04-24T03:20:32;9.70;99.90
2012;DHT22;1009;51.436;6.972;2023-04-24T03:23:05;9.70;99.90
2012;DHT22;1009;51.436;6.972;2023-04-24T03:25:32;9.70;99.90
2012;DHT22;1009;51.436;6.972;2023-04-24T03:27:59;9.70;99.90
2012;DHT22;1009;51.436;6.972;2023-04-24T03:30:25;9.60;99.90
2012;DHT22;1009;51.436;6.972;2023-04-24T03:32:52;9.60;99.90
2012;DHT22;1009;51.436;6.972;2023-04-24T03:35:19;9.70;99.90
2012;DHT22;1009;51.436;6.972;2023-04-24T03:37:46;9.70;99.90
2012;DHT22;1009;51.436;6.972;2023-04-24T03:40:14;9.70;99.90
2012;DHT22;1009;51.436;6.972;2023-04-24T03:42:41;9.60;99.90
2012;DHT22;1009;51.436;6.972;2023-04-24T03:45:09;9.70;99.90
2012;DHT22;1009;51.436;6.972;2023-04-24T03:47:36;9.70;99.90
2012;DHT22;1009;51.436;6.972;2023-04-24T03:50:03;9.70;99.90
2012;DHT22;1009;51.436;6.972;2023-04-24T03:52:30;9.70;99.90
2012;DHT22;1009;51.436;6.972;2023-04-24T03:54:56;9.70;99.90
2012;DHT22;1009;51.436;6.972;2023-04-24T03:57:24;9.70;99.90
2012;DHT22;1009;51.436;6.972;2023-04-24T03:59:51;9.80;99.90
2012;DHT22;1009;51.436;6.972;2023-04-24T04:02:18;9.80;99.90
2012;DHT22;1009;51.436;6.972;2023-04-24T04:04:45;9.80;99.90
2012;DHT22;1009;51.436;6.972;2023-04-24T04:07:12;9.80;99.90
2012;DHT22;1009;51.436;6.972;2023-04-24T04:09:39;9.80;99.90
2012;DHT22;1009;51.436;6.972;2023-04-24T04:12:05;9.70;99.90
2012;DHT22;1009;51.436;6.972;2023-04-24T04:14:34;9.70;99.90
2012;DHT22;1009;51.436;6.972;2023-04-24T04:17:00;9.70;99.90
2012;DHT22;1009;51.436;6.972;2023-04-24T04:19:27;9.70;99.90
2012;DHT22;1009;51.436;6.972;2023-04-24T04:21:54;9.70;99.90
2012;DHT22;1009;51.436;6.972;2023-04-24T04:24:21;9.70;99.90
2012;DHT22;1009;51.436;6.972;2023-04-24T04:26:49;9.70;99.90
2012;DHT22;1009;51.436;6.972;2023-04-24T04:29:16;9.70;99.90
2012;DHT22;1009;51.436;6.972;2023-04-24T04:31:45;9.70;99.90
2012;DHT22;1009;51.436;6.972;2023-04-24T04:34:11;9.70;99.90
2012;DHT22;1009;51.436;6.972;2023-04-24T04:36:39;9.70;99.90
2012;DHT22;1009;51.436;6.972;2023-04-24T04:39:06;9.70;99.90
2012;DHT22;1009;51.436;6.972;2023-04-24T04:41:33;9.70;99.90
2012;DHT22;1009;51.436;6.972;2023-04-24T04:44:01;9.70;99.90
2012;DHT22;1009;51.436;6.972;2023-04-24T04:46:30;9.70;99.90
2012;DHT22;1009;51.436;6.972;2023-04-24T04:48:59;9.70;99.90
2012;DHT22;1009;51.436;6.972;2023-04-24T04:51:26;9.70;99.90
2012;DHT22;1009;51.436;6.972;2023-04-24T04:53:52;9.70;99.90
2012;DHT22;1009;51.436;6.972;2023-04-24T04:56:19;9.70;99.90
2012;DHT22;1009;51.436;6.972;2023-04-24T04:58:46;9.70;99.90
2012;DHT22;1009;51.436;6.972;2023-04-24T05:01:13;9.70;99.90
2012;DHT22;1009;51.436;6.972;2023-04-24T05:03:39;9.70;99.90
2012;DHT22;1009;51.436;6.972;2023-04-24T05:06:08;9.70;99.90
2012;DHT22;1009;51.436;6.972;2023-04-24T05:08:35;9.60;99.90
2012;DHT22;1009;51.436;6.972;2023-04-24T05:11:01;9.70;99.90
2012;DHT22;1009;51.436;6.972;2023-04-24T05:13:28;9.70;99.90
2012;DHT22;1009;51.436;6.972;2023-04-24T05:15:55;9.60;99.90
2012;DHT22;1009;51.436;6.972;2023-04-24T05:18:21;9.60;99.90
2012;DHT22;1009;51.436;6.972;2023-04-24T05:20:48;9.60;99.90
2012;DHT22;1009;51.436;6.972;2023-04-24T05:23:16;9.50;99.90
2012;DHT22;1009;51.436;6.972;2023-04-24T05:25:43;9.50;99.90
2012;DHT22;1009;51.436;6.972;2023-04-24T05:28:10;9.50;99.90
2012;DHT22;1009;51.436;6.972;2023-04-24T05:30:36;9.50;99.90
2012;DHT22;1009;51.436;6.972;2023-04-24T05:33:03;9.30;99.90
2012;DHT22;1009;51.436;6.972;2023-04-24T05:35:30;9.20;99.90
2012;DHT22;1009;51.436;6.972;2023-04-24T05:37:57;9.10;99.90
2012;DHT22;1009;51.436;6.972;2023-04-24T05:40:25;9.10;99.90
2012;DHT22;1009;51.436;6.972;2023-04-24T05:42:51;9.10;99.90
2012;DHT22;1009;51.436;6.972;2023-04-24T05:45:18;9.00;99.90
2012;DHT22;1009;51.436;6.972;2023-04-24T05:47:45;9.00;99.90
2012;DHT22;1009;51.436;6.972;2023-04-24T05:50:12;9.00;99.90
2012;DHT22;1009;51.436;6.972;2023-04-24T05:52:39;9.00;99.90
2012;DHT22;1009;51.436;6.972;2023-04-24T05:55:06;9.00;99.90
2012;DHT22;1009;51.436;6.972;2023-04-24T05:57:34;8.90;99.90
2012;DHT22;1009;51.436;6.972;2023-04-24T06:00:01;9.00;99.90
2012;DHT22;1009;51.436;6.972;2023-04-24T06:02:28;8.80;99.90
2012;DHT22;1009;51.436;6.972;2023-04-24T06:04:57;8.90;99.90
2012;DHT22;1009;51.436;6.972;2023-04-24T06:07:24;8.90;99.90
2012;DHT22;1009;51.436;6.972;2023-04-24T06:09:51;8.80;99.90
2012;DHT22;1009;51.436;6.972;2023-04-24T06:12:18;8.80;99.90
2012;DHT22;1009;51.436;6.972;2023-04-24T06:14:47;8.90;99.90
2012;DHT22;1009;51.436;6.972;2023-04-24T06:17:15;9.00;99.90
2012;DHT22;1009;51.436;6.972;2023-04-24T06:19:42;9.00;99.90
2012;DHT22;1009;51.436;6.972;2023-04-24T06:22:09;9.00;99.90
2012;DHT22;1009;51.436;6.972;2023-04-24T06:24:36;9.00;99.90
2012;DHT22;1009;51.436;6.972;2023-04-24T06:27:03;9.00;99.90
2012;DHT22;1009;51.436;6.972;2023-04-24T06:29:29;9.00;99.90
2012;DHT22;1009;51.436;6.972;2023-04-24T06:31:57;9.00;99.90
2012;DHT22;1009;51.436;6.972;2023-04-24T06:34:24;8.90;99.90
2012;DHT22;1009;51.436;6.972;2023-04-24T06:36:51;9.00;99.90
2012;DHT22;1009;51.436;6.972;2023-04-24T06:39:18;9.10;99.90
2012;DHT22;1009;51.436;6.972;2023-04-24T06:41:45;9.20;99.90
2012;DHT22;1009;51.436;6.972;2023-04-24T06:44:11;9.00;99.90
2012;DHT22;1009;51.436;6.972;2023-04-24T06:46:40;8.90;99.90
2012;DHT22;1009;51.436;6.972;2023-04-24T06:49:08;8.90;99.90
2012;DHT22;1009;51.436;6.972;2023-04-24T06:51:35;9.00;99.90
2012;DHT22;1009;51.436;6.972;2023-04-24T06:54:02;9.00;99.90
2012;DHT22;1009;51.436;6.972;2023-04-24T06:56:28;9.00;99.90
2012;DHT22;1009;51.436;6.972;2023-04-24T06:58:55;8.90;99.90
2012;DHT22;1009;51.436;6.972;2023-04-24T07:01:22;8.90;99.90
2012;DHT22;1009;51.436;6.972;2023-04-24T07:03:48;8.80;99.90
2012;DHT22;1009;51.436;6.972;2023-04-24T07:06:17;8.90;99.90
2012;DHT22;1009;51.436;6.972;2023-04-24T07:08:46;8.90;99.90
2012;DHT22;1009;51.436;6.972;2023-04-24T07:11:13;8.90;99.90
2012;DHT22;1009;51.436;6.972;2023-04-24T07:13:40;8.90;99.90
2012;DHT22;1009;51.436;6.972;2023-04-24T07:16:07;8.90;99.90
2012;DHT22;1009;51.436;6.972;2023-04-24T07:18:34;9.00;99.90
2012;DHT22;1009;51.436;6.972;2023-04-24T07:21:02;8.80;99.90
2012;DHT22;1009;51.436;6.972;2023-04-24T07:23:30;8.90;99.90
2012;DHT22;1009;51.436;6.972;2023-04-24T07:25:57;8.70;99.90
2012;DHT22;1009;51.436;6.972;2023-04-24T07:28:24;8.80;99.90
2012;DHT22;1009;51.436;6.972;2023-04-24T07:30:51;8.80;99.90
2012;DHT22;1009;51.436;6.972;2023-04-24T07:33:19;8.80;99.90
2012;DHT22;1009;51.436;6.972;2023-04-24T07:35:46;8.70;99.90
2012;DHT22;1009;51.436;6.972;2023-04-24T07:38:13;8.60;99.90
2012;DHT22;1009;51.436;6.972;2023-04-24T07:40:41;8.60;99.90
2012;DHT22;1009;51.436;6.972;2023-04-24T07:43:08;8.60;99.90
2012;DHT22;1009;51.436;6.972;2023-04-24T07:45:35;8.70;99.90
2012;DHT22;1009;51.436;6.972;2023-04-24T07:48:03;8.70;99.90
2012;DHT22;1009;51.436;6.972;2023-04-24T07:50:29;8.80;99.90
2012;DHT22;1009;51.436;6.972;2023-04-24T07:52:56;8.90;99.90
2012;DHT22;1009;51.436;6.972;2023-04-24T07:55:23;9.00;99.90
2012;DHT22;1009;51.436;6.972;2023-04-24T07:57:51;8.80;99.90
2012;DHT22;1009;51.436;6.972;2023-04-24T08:00:18;8.70;99.90
2012;DHT22;1009;51.436;6.972;2023-04-24T08:02:45;8.80;99.90
2012;DHT22;1009;51.436;6.972;2023-04-24T08:05:13;8.70;99.90
2012;DHT22;1009;51.436;6.972;2023-04-24T08:07:39;8.80;99.90
2012;DHT22;1009;51.436;6.972;2023-04-24T08:10:09;8.90;99.90
2012;DHT22;1009;51.436;6.972;2023-04-24T08:12:36;8.90;99.90
2012;DHT22;1009;51.436;6.972;2023-04-24T08:15:05;8.70;99.90
2012;DHT22;1009;51.436;6.972;2023-04-24T08:17:33;8.60;99.90
2012;DHT22;1009;51.436;6.972;2023-04-24T08:20:00;8.50;99.90
2012;DHT22;1009;51.436;6.972;2023-04-24T08:22:27;8.40;99.90
2012;DHT22;1009;51.436;6.972;2023-04-24T08:24:54;8.40;99.90
2012;DHT22;1009;51.436;6.972;2023-04-24T08:27:22;8.30;99.90
2012;DHT22;1009;51.436;6.972;2023-04-24T08:29:49;8.20;99.90
2012;DHT22;1009;51.436;6.972;2023-04-24T08:32:17;8.30;99.90
2012;DHT22;1009;51.436;6.972;2023-04-24T08:34:44;8.20;99.90
2012;DHT22;1009;51.436;6.972;2023-04-24T08:37:11;8.30;99.90
2012;DHT22;1009;51.436;6.972;2023-04-24T08:39:38;8.30;99.90
2012;DHT22;1009;51.436;6.972;2023-04-24T08:42:05;8.30;99.90
2012;DHT22;1009;51.436;6.972;2023-04-24T08:44:34;8.40;99.90
2012;DHT22;1009;51.436;6.972;2023-04-24T08:47:02;8.40;99.90
2012;DHT22;1009;51.436;6.972;2023-04-24T08:49:30;8.40;99.90
2012;DHT22;1009;51.436;6.972;2023-04-24T08:51:57;8.30;99.90
2012;DHT22;1009;51.436;6.972;2023-04-24T08:54:25;8.30;99.90
2012;DHT22;1009;51.436;6.972;2023-04-24T08:56:53;8.30;99.90
2012;DHT22;1009;51.436;6.972;2023-04-24T08:59:21;8.30;99.90
2012;DHT22;1009;51.436;6.972;2023-04-24T09:01:48;8.40;99.90
2012;DHT22;1009;51.436;6.972;2023-04-24T09:04:15;8.50;99.90
2012;DHT22;1009;51.436;6.972;2023-04-24T09:06:47;8.60;99.90
2012;DHT22;1009;51.436;6.972;2023-04-24T09:09:16;8.50;99.90
2012;DHT22;1009;51.436;6.972;2023-04-24T09:11:43;8.70;99.90
2012;DHT22;1009;51.436;6.972;2023-04-24T09:14:10;8.80;99.90
2012;DHT22;1009;51.436;6.972;2023-04-24T09:16:37;8.80;99.90
2012;DHT22;1009;51.436;6.972;2023-04-24T09:19:04;8.80;99.90
2012;DHT22;1009;51.436;6.972;2023-04-24T09:21:32;8.80;99.90
2012;DHT22;1009;51.436;6.972;2023-04-24T09:24:01;8.70;99.90
2012;DHT22;1009;51.436;6.972;2023-04-24T09:26:29;8.70;99.90
2012;DHT22;1009;51.436;6.972;2023-04-24T09:28:59;8.60;99.90
2012;DHT22;1009;51.436;6.972;2023-04-24T09:31:27;8.60;99.90
2012;DHT22;1009;51.436;6.972;2023-04-24T09:33:56;8.60;99.90
2012;DHT22;1009;51.436;6.972;2023-04-24T09:36:30;8.50;99.90
2012;DHT22;1009;51.436;6.972;2023-04-24T09:39:00;8.40;99.90
2012;DHT22;1009;51.436;6.972;2023-04-24T09:41:28;8.40;99.90
2012;DHT22;1009;51.436;6.972;2023-04-24T09:43:56;8.30;99.90
2012;DHT22;1009;51.436;6.972;2023-04-24T09:46:30;8.20;99.90
2012;DHT22;1009;51.436;6.972;2023-04-24T09:48:57;8.20;99.90
2012;DHT22;1009;51.436;6.972;2023-04-24T09:51:34;8.10;99.90
2012;DHT22;1009;51.436;6.972;2023-04-24T09:54:03;8.10;99.90
2012;DHT22;1009;51.436;6.972;2023-04-24T09:56:33;8.20;99.90
2012;DHT22;1009;51.436;6.972;2023-04-24T09:59:07;8.10;99.90
2012;DHT22;1009;51.436;6.972;2023-04-24T10:01:34;8.10;99.90
2012;DHT22;1009;51.436;6.972;2023-04-24T10:04:02;8.20;99.90
2012;DHT22;1009;51.436;6.972;2023-04-24T10:06:33;8.20;99.90
2012;DHT22;1009;51.436;6.972;2023-04-24T10:09:01;8.20;99.90
2012;DHT22;1009;51.436;6.972;2023-04-24T10:11:30;8.30;99.90
2012;DHT22;1009;51.436;6.972;2023-04-24T10:13:57;8.40;99.90
2012;DHT22;1009;51.436;6.972;2023-04-24T10:16:26;8.40;99.90
2012;DHT22;1009;51.436;6.972;2023-04-24T10:18:54;8.40;99.90
2012;DHT22;1009;51.436;6.972;2023-04-24T10:21:21;8.40;99.90
2012;DHT22;1009;51.436;6.972;2023-04-24T10:23:49;8.40;99.90
2012;DHT22;1009;51.436;6.972;2023-04-24T10:26:17;8.30;99.90
2012;DHT22;1009;51.436;6.972;2023-04-24T10:28:47;8.30;99.90
2012;DHT22;1009;51.436;6.972;2023-04-24T10:31:14;8.40;99.90
2012;DHT22;1009;51.436;6.972;2023-04-24T10:33:42;8.40;99.90
2012;DHT22;1009;51.436;6.972;2023-04-24T10:36:10;8.40;99.90
2012;DHT22;1009;51.436;6.972;2023-04-24T10:38:39;8.40;99.90
2012;DHT22;1009;51.436;6.972;2023-04-24T10:41:08;8.50;99.90
2012;DHT22;1009;51.436;6.972;2023-04-24T10:43:40;8.40;99.90
2012;DHT22;1009;51.436;6.972;2023-04-24T10:46:08;8.50;99.90
2012;DHT22;1009;51.436;6.972;2023-04-24T10:48:42;8.50;99.90
2012;DHT22;1009;51.436;6.972;2023-04-24T10:51:11;8.50;99.90
2012;DHT22;1009;51.436;6.972;2023-04-24T10:53:39;8.50;99.90
2012;DHT22;1009;51.436;6.972;2023-04-24T10:56:07;8.50;99.90
2012;DHT22;1009;51.436;6.972;2023-04-24T10:58:40;8.60;99.90
2012;DHT22;1009;51.436;6.972;2023-04-24T11:01:23;8.70;99.90
2012;DHT22;1009;51.436;6.972;2023-04-24T11:03:54;8.70;99.90
2012;DHT22;1009;51.436;6.972;2023-04-24T11:06:28;8.80;99.90
2012;DHT22;1009;51.436;6.972;2023-04-24T11:09:02;8.90;99.90
2012;DHT22;1009;51.436;6.972;2023-04-24T11:11:30;9.00;99.90
2012;DHT22;1009;51.436;6.972;2023-04-24T11:14:07;8.80;99.90
2012;DHT22;1009;51.436;6.972;2023-04-24T11:16:51;8.80;99.90
2012;DHT22;1009;51.436;6.972;2023-04-24T11:19:21;8.90;99.90
2012;DHT22;1009;51.436;6.972;2023-04-24T11:21:55;9.00;99.90
2012;DHT22;1009;51.436;6.972;2023-04-24T11:24:24;9.10;99.90
2012;DHT22;1009;51.436;6.972;2023-04-24T11:26:51;9.30;99.90
2012;DHT22;1009;51.436;6.972;2023-04-24T11:29:20;9.50;99.90
2012;DHT22;1009;51.436;6.972;2023-04-24T11:31:48;9.40;99.90
2012;DHT22;1009;51.436;6.972;2023-04-24T11:34:17;9.40;99.90
2012;DHT22;1009;51.436;6.972;2023-04-24T11:36:45;9.20;99.90
2012;DHT22;1009;51.436;6.972;2023-04-24T11:39:12;9.10;99.90
2012;DHT22;1009;51.436;6.972;2023-04-24T11:41:39;9.00;99.90
2012;DHT22;1009;51.436;6.972;2023-04-24T11:44:07;9.00;99.90
2012;DHT22;1009;51.436;6.972;2023-04-24T11:46:34;8.90;99.90
2012;DHT22;1009;51.436;6.972;2023-04-24T11:49:04;9.00;99.90
2012;DHT22;1009;51.436;6.972;2023-04-24T11:51:32;8.90;99.90
2012;DHT22;1009;51.436;6.972;2023-04-24T11:53:59;8.90;99.90
2012;DHT22;1009;51.436;6.972;2023-04-24T11:56:26;8.90;99.90
2012;DHT22;1009;51.436;6.972;2023-04-24T11:58:53;9.00;99.90
2012;DHT22;1009;51.436;6.972;2023-04-24T12:01:20;9.10;99.90
2012;DHT22;1009;51.436;6.972;2023-04-24T12:03:48;9.40;99.90
2012;DHT22;1009;51.436;6.972;2023-04-24T12:06:17;9.50;99.90
2012;DHT22;1009;51.436;6.972;2023-04-24T12:08:48;9.70;99.90
2012;DHT22;1009;51.436;6.972;2023-04-24T12:11:16;9.90;99.90
2012;DHT22;1009;51.436;6.972;2023-04-24T12:13:44;9.80;99.90
2012;DHT22;1009;51.436;6.972;2023-04-24T12:16:11;9.90;99.90
2012;DHT22;1009;51.436;6.972;2023-04-24T12:18:43;10.00;99.90
2012;DHT22;1009;51.436;6.972;2023-04-24T12:21:22;10.10;99.90
2012;DHT22;1009;51.436;6.972;2023-04-24T12:23:54;9.90;99.90
2012;DHT22;1009;51.436;6.972;2023-04-24T12:26:21;9.90;99.90
2012;DHT22;1009;51.436;6.972;2023-04-24T12:28:49;9.70;99.90
2012;DHT22;1009;51.436;6.972;2023-04-24T12:31:16;9.60;99.90
2012;DHT22;1009;51.436;6.972;2023-04-24T12:33:43;9.60;99.90
2012;DHT22;1009;51.436;6.972;2023-04-24T12:36:11;9.60;99.90
2012;DHT22;1009;51.436;6.972;2023-04-24T12:38:43;9.60;99.90
2012;DHT22;1009;51.436;6.972;2023-04-24T12:41:11;9.70;99.90
2012;DHT22;1009;51.436;6.972;2023-04-24T12:43:38;9.60;99.90
2012;DHT22;1009;51.436;6.972;2023-04-24T12:46:05;9.60;99.90
2012;DHT22;1009;51.436;6.972;2023-04-24T12:48:31;9.70;99.90
2012;DHT22;1009;51.436;6.972;2023-04-24T12:50:59;9.80;99.90
2012;DHT22;1009;51.436;6.972;2023-04-24T12:53:27;9.80;99.90
2012;DHT22;1009;51.436;6.972;2023-04-24T12:55:56;9.80;99.90
2012;DHT22;1009;51.436;6.972;2023-04-24T12:58:23;9.90;99.90
2012;DHT22;1009;51.436;6.972;2023-04-24T13:00:50;10.00;99.90
2012;DHT22;1009;51.436;6.972;2023-04-24T13:03:18;10.00;99.90
2012;DHT22;1009;51.436;6.972;2023-04-24T13:05:45;10.20;99.90
2012;DHT22;1009;51.436;6.972;2023-04-24T13:08:11;10.20;99.90
2012;DHT22;1009;51.436;6.972;2023-04-24T13:10:39;10.30;99.90
2012;DHT22;1009;51.436;6.972;2023-04-24T13:13:11;10.40;99.90
2012;DHT22;1009;51.436;6.972;2023-04-24T13:15:38;10.40;99.90
2012;DHT22;1009;51.436;6.972;2023-04-24T13:18:05;10.40;99.90
2012;DHT22;1009;51.436;6.972;2023-04-24T13:20:32;10.30;99.90
2012;DHT22;1009;51.436;6.972;2023-04-24T13:23:00;10.40;99.90
2012;DHT22;1009;51.436;6.972;2023-04-24T13:25:27;10.10;99.90
2012;DHT22;1009;51.436;6.972;2023-04-24T13:27:55;10.10;99.90
2012;DHT22;1009;51.436;6.972;2023-04-24T13:30:23;10.10;99.90
2012;DHT22;1009;51.436;6.972;2023-04-24T13:32:49;10.00;99.90
2012;DHT22;1009;51.436;6.972;2023-04-24T13:35:16;10.00;99.90
2012;DHT22;1009;51.436;6.972;2023-04-24T13:37:44;10.10;99.90
2012;DHT22;1009;51.436;6.972;2023-04-24T13:40:15;10.10;99.90
2012;DHT22;1009;51.436;6.972;2023-04-24T13:42:41;10.10;99.90
2012;DHT22;1009;51.436;6.972;2023-04-24T13:45:10;10.10;99.90
2012;DHT22;1009;51.436;6.972;2023-04-24T13:47:38;10.00;99.90
2012;DHT22;1009;51.436;6.972;2023-04-24T13:50:07;9.90;99.90
2012;DHT22;1009;51.436;6.972;2023-04-24T13:52:36;10.00;99.90
2012;DHT22;1009;51.436;6.972;2023-04-24T13:55:04;9.90;99.90
2012;DHT22;1009;51.436;6.972;2023-04-24T13:57:30;10.10;99.90
2012;DHT22;1009;51.436;6.972;2023-04-24T13:59:58;10.10;99.90
2012;DHT22;1009;51.436;6.972;2023-04-24T14:02:29;10.10;99.90
2012;DHT22;1009;51.436;6.972;2023-04-24T14:04:57;10.20;99.90
2012;DHT22;1009;51.436;6.972;2023-04-24T14:07:23;10.30;99.90
2012;DHT22;1009;51.436;6.972;2023-04-24T14:09:51;10.40;99.90
2012;DHT22;1009;51.436;6.972;2023-04-24T14:12:20;10.50;99.90
2012;DHT22;1009;51.436;6.972;2023-04-24T14:14:47;10.70;99.90
2012;DHT22;1009;51.436;6.972;2023-04-24T14:17:14;10.80;99.90
2012;DHT22;1009;51.436;6.972;2023-04-24T14:19:41;10.70;99.90
2012;DHT22;1009;51.436;6.972;2023-04-24T14:22:09;10.60;99.90
2012;DHT22;1009;51.436;6.972;2023-04-24T14:24:36;10.70;99.90
2012;DHT22;1009;51.436;6.972;2023-04-24T14:27:03;10.70;99.90
2012;DHT22;1009;51.436;6.972;2023-04-24T14:29:29;10.80;99.90
2012;DHT22;1009;51.436;6.972;2023-04-24T14:31:56;10.70;99.90
2012;DHT22;1009;51.436;6.972;2023-04-24T14:34:23;10.70;99.90
2012;DHT22;1009;51.436;6.972;2023-04-24T14:36:49;10.60;99.90
2012;DHT22;1009;51.436;6.972;2023-04-24T14:39:17;10.60;99.90
2012;DHT22;1009;51.436;6.972;2023-04-24T14:41:44;10.60;99.90
2012;DHT22;1009;51.436;6.972;2023-04-24T14:44:11;10.60;99.90
2012;DHT22;1009;51.436;6.972;2023-04-24T14:46:38;10.60;99.90
2012;DHT22;1009;51.436;6.972;2023-04-24T14:49:04;10.60;99.90
2012;DHT22;1009;51.436;6.972;2023-04-24T14:51:34;10.50;99.90
2012;DHT22;1009;51.436;6.972;2023-04-24T14:54:04;10.40;99.90
2012;DHT22;1009;51.436;6.972;2023-04-24T14:56:35;10.20;99.90
2012;DHT22;1009;51.436;6.972;2023-04-24T14:59:05;10.20;99.90
2012;DHT22;1009;51.436;6.972;2023-04-24T15:01:32;9.90;99.90
2012;DHT22;1009;51.436;6.972;2023-04-24T15:04:01;9.80;99.90
2012;DHT22;1009;51.436;6.972;2023-04-24T15:06:30;9.80;99.90
2012;DHT22;1009;51.436;6.972;2023-04-24T15:08:57;9.70;99.90
2012;DHT22;1009;51.436;6.972;2023-04-24T15:11:32;9.70;99.90
2012;DHT22;1009;51.436;6.972;2023-04-24T15:14:03;9.80;99.90
2012;DHT22;1009;51.436;6.972;2023-04-24T15:16:31;9.80;99.90
2012;DHT22;1009;51.436;6.972;2023-04-24T15:18:58;9.90;99.90
2012;DHT22;1009;51.436;6.972;2023-04-24T15:21:25;9.90;99.90
2012;DHT22;1009;51.436;6.972;2023-04-24T15:23:51;10.20;99.90
2012;DHT22;1009;51.436;6.972;2023-04-24T15:26:18;10.30;99.90
2012;DHT22;1009;51.436;6.972;2023-04-24T15:28:45;10.30;99.90
2012;DHT22;1009;51.436;6.972;2023-04-24T15:31:13;10.50;99.90
2012;DHT22;1009;51.436;6.972;2023-04-24T15:33:40;10.40;99.90
2012;DHT22;1009;51.436;6.972;2023-04-24T15:36:07;10.50;99.90
2012;DHT22;1009;51.436;6.972;2023-04-24T15:38:34;10.60;99.90
2012;DHT22;1009;51.436;6.972;2023-04-24T15:41:01;10.60;99.90
2012;DHT22;1009;51.436;6.972;2023-04-24T15:43:27;10.60;99.90
2012;DHT22;1009;51.436;6.972;2023-04-24T15:45:56;10.70;99.90
2012;DHT22;1009;51.436;6.972;2023-04-24T15:48:24;10.60;99.90
2012;DHT22;1009;51.436;6.972;2023-04-24T15:50:51;10.60;99.90
2012;DHT22;1009;51.436;6.972;2023-04-24T15:53:18;10.70;99.90
2012;DHT22;1009;51.436;6.972;2023-04-24T15:55:46;10.60;99.90
2012;DHT22;1009;51.436;6.972;2023-04-24T15:58:13;10.40;99.90
2012;DHT22;1009;51.436;6.972;2023-04-24T16:00:40;10.30;99.90
2012;DHT22;1009;51.436;6.972;2023-04-24T16:03:06;10.20;99.90
2012;DHT22;1009;51.436;6.972;2023-04-24T16:05:35;10.30;99.90
2012;DHT22;1009;51.436;6.972;2023-04-24T16:08:01;10.40;99.90
2012;DHT22;1009;51.436;6.972;2023-04-24T16:10:28;10.40;99.90
2012;DHT22;1009;51.436;6.972;2023-04-24T16:12:55;10.50;99.90
2012;DHT22;1009;51.436;6.972;2023-04-24T16:15:22;10.80;99.90